Current Weather

Podor

Podor, Senegal (GOSP)

Report from: Monday, May 23, 2022 8:00 AM GMT
Current time: Monday, May 23, 2022 8:31 AM GMT

Nearby weather
Weather history
Weather forecast

Temperature20.0°C (68.0°F)
Dew point17.0°C (62.6°F)
Winds 4 kts (2.1 m/s, 4.6 mph) West (280°)
Clouds Sky clear
Altimeter29.88 in.Hg (1012 mB)
Relative humidity83 %
Density altitude893 ft. (272 m)
Remarks Ceiling and visibility OK
Flight conditions Visual Meteorological Conditions
Raw dataGOSP 230800Z 28004KT CAVOK 20/17 Q1012
An error has occurred. This application may no longer respond until reloaded. Reload 🗙